createdAt,value
2023-12-05T00:00:14.417Z,-0.33
2023-12-05T00:02:42.912Z,-0.70
2023-12-05T00:05:12.223Z,-0.11
2023-12-05T00:07:41.399Z,-0.41
2023-12-05T00:10:11.805Z,-0.35
2023-12-05T00:12:40.827Z,-0.19
2023-12-05T00:15:10.941Z,-0.25
2023-12-05T00:17:39.499Z,-0.13
2023-12-05T00:20:09.700Z,0.09
2023-12-05T00:22:39.149Z,0.02
2023-12-05T00:25:08.906Z,0.04
2023-12-05T00:27:38.788Z,-0.12
2023-12-05T00:30:09.080Z,-0.15
2023-12-05T00:32:37.618Z,-0.44
2023-12-05T00:35:07.369Z,-0.20
2023-12-05T00:37:35.888Z,0.10
2023-12-05T00:40:05.868Z,0.02
2023-12-05T00:42:34.434Z,-0.01
2023-12-05T00:45:04.701Z,-0.09
2023-12-05T00:47:33.216Z,-0.01
2023-12-05T00:50:01.659Z,-0.35
2023-12-05T00:52:30.128Z,-0.09
2023-12-05T00:54:59.020Z,0.01
2023-12-05T00:57:27.425Z,0.04
2023-12-05T00:59:56.252Z,0.17
2023-12-05T01:02:26.077Z,-0.05
2023-12-05T01:04:54.628Z,0.13
2023-12-05T01:07:23.292Z,-0.12
2023-12-05T01:09:51.786Z,0.08
2023-12-05T01:12:21.065Z,0.25
2023-12-05T01:14:51.748Z,0.34
2023-12-05T01:17:20.381Z,0.17
2023-12-05T01:19:50.653Z,0.16
2023-12-05T01:22:19.065Z,0.15
2023-12-05T01:24:55.932Z,-0.04
2023-12-05T01:27:24.731Z,0.23
2023-12-05T01:29:53.602Z,0.29
2023-12-05T01:32:22.171Z,0.12
2023-12-05T01:34:51.956Z,0.02
2023-12-05T01:37:20.635Z,0.16
2023-12-05T01:39:49.088Z,-0.21
2023-12-05T01:42:17.619Z,0.34
2023-12-05T01:44:46.118Z,0.32
2023-12-05T01:47:17.594Z,0.40
2023-12-05T01:49:48.146Z,0.48
2023-12-05T01:52:18.709Z,0.54
2023-12-05T01:54:47.993Z,0.46
2023-12-05T01:57:17.569Z,0.38
2023-12-05T01:59:46.155Z,0.61
2023-12-05T02:02:15.253Z,0.56
2023-12-05T02:04:45.735Z,0.49
2023-12-05T02:07:15.759Z,-0.05
2023-12-05T02:09:47.378Z,0.56
2023-12-05T02:12:15.893Z,0.53
2023-12-05T02:14:44.739Z,0.64
2023-12-05T02:17:22.778Z,0.65
2023-12-05T02:20:07.763Z,0.58
2023-12-05T02:23:03.524Z,0.56
2023-12-05T02:25:56.168Z,0.65
2023-12-05T02:28:26.858Z,0.38
2023-12-05T02:30:55.439Z,0.70
2023-12-05T02:33:24.047Z,0.65
2023-12-05T02:36:03.606Z,0.33
2023-12-05T02:38:42.048Z,0.69
2023-12-05T02:41:18.593Z,0.48
2023-12-05T02:43:53.193Z,0.09
2023-12-05T02:46:23.301Z,0.54
2023-12-05T02:48:52.870Z,0.77
2023-12-05T02:51:22.286Z,0.65
2023-12-05T02:53:50.804Z,0.80
2023-12-05T02:56:20.676Z,0.57
2023-12-05T02:58:50.445Z,0.45
2023-12-05T03:01:18.970Z,0.88
2023-12-05T03:03:47.882Z,0.25
2023-12-05T03:06:16.483Z,0.64
2023-12-05T03:08:44.987Z,0.59
2023-12-05T03:11:13.638Z,0.71
2023-12-05T03:13:42.348Z,0.52
2023-12-05T03:16:12.784Z,0.51
2023-12-05T03:18:42.378Z,0.58
2023-12-05T03:21:11.303Z,0.24
2023-12-05T03:23:40.083Z,1.01
2023-12-05T03:26:09.719Z,0.67
2023-12-05T03:28:38.304Z,0.70
2023-12-05T03:31:07.233Z,0.83
2023-12-05T03:33:39.289Z,0.77
2023-12-05T03:36:09.028Z,0.91
2023-12-05T03:38:39.923Z,0.54
2023-12-05T03:41:10.797Z,0.48
2023-12-05T03:43:39.246Z,0.79
2023-12-05T03:46:08.138Z,0.59
2023-12-05T03:48:38.984Z,0.65
2023-12-05T03:51:08.571Z,0.67
2023-12-05T03:53:37.051Z,0.91
2023-12-05T03:56:06.622Z,0.88
2023-12-05T03:58:35.177Z,0.85
2023-12-05T04:01:03.649Z,0.91
2023-12-05T04:03:32.343Z,0.98
2023-12-05T04:06:02.280Z,1.00
2023-12-05T04:08:30.708Z,0.35
2023-12-05T04:10:59.222Z,1.06
2023-12-05T04:13:30.080Z,0.76
2023-12-05T04:15:59.223Z,1.01
2023-12-05T04:18:27.818Z,0.93
2023-12-05T04:20:56.259Z,0.90
2023-12-05T04:23:26.209Z,0.99
2023-12-05T04:25:54.672Z,0.51
2023-12-05T04:28:23.527Z,1.09
2023-12-05T04:30:51.945Z,0.95
2023-12-05T04:33:20.739Z,1.18
2023-12-05T04:35:49.226Z,1.19
2023-12-05T04:38:18.587Z,1.11
2023-12-05T04:40:48.397Z,1.19
2023-12-05T04:43:17.435Z,1.17
2023-12-05T04:45:47.053Z,1.26
2023-12-05T04:48:15.942Z,1.31
2023-12-05T04:50:47.200Z,1.26
2023-12-05T04:53:15.756Z,1.29
2023-12-05T04:55:44.536Z,1.31
2023-12-05T04:58:14.373Z,1.13
2023-12-05T05:00:43.140Z,1.14
2023-12-05T05:03:12.943Z,1.21
2023-12-05T05:05:41.693Z,1.27
2023-12-05T05:08:10.310Z,0.79
2023-12-05T05:10:38.737Z,1.16
2023-12-05T05:13:07.232Z,1.40
2023-12-05T05:15:37.243Z,1.27
2023-12-05T05:18:05.968Z,1.27
2023-12-05T05:20:34.480Z,1.07
2023-12-05T05:23:03.111Z,1.15
2023-12-05T05:25:32.132Z,1.16
2023-12-05T05:28:00.735Z,1.30
2023-12-05T05:30:29.289Z,1.24
2023-12-05T05:32:59.360Z,1.29
2023-12-05T05:35:27.996Z,1.11
2023-12-05T05:37:56.513Z,0.66
2023-12-05T05:40:27.388Z,1.03
2023-12-05T05:42:56.122Z,0.71
2023-12-05T05:45:27.383Z,1.08
2023-12-05T05:47:55.911Z,1.01
2023-12-05T05:50:25.871Z,0.69
2023-12-05T05:52:54.350Z,0.80
2023-12-05T05:55:26.083Z,0.43
2023-12-05T05:57:55.052Z,0.21
2023-12-05T06:00:24.595Z,-0.28
2023-12-05T06:02:53.176Z,0.31
2023-12-05T06:05:21.757Z,0.10
2023-12-05T06:07:51.625Z,-0.59
2023-12-05T06:10:20.498Z,0.37
2023-12-05T06:12:49.161Z,0.27
2023-12-05T06:15:17.881Z,-0.21
2023-12-05T06:17:49.350Z,0.29
2023-12-05T06:20:18.561Z,0.07
2023-12-05T06:22:47.659Z,0.31
2023-12-05T06:25:17.702Z,0.10
2023-12-05T06:27:47.601Z,0.27
2023-12-05T06:30:21.809Z,0.56
2023-12-05T06:32:55.596Z,0.42
2023-12-05T06:35:24.148Z,0.50
2023-12-05T06:37:54.035Z,0.34
2023-12-05T06:40:23.971Z,0.09
2023-12-05T06:42:52.454Z,-0.15
2023-12-05T06:45:20.982Z,-0.20
2023-12-05T06:47:49.538Z,-0.05
2023-12-05T06:50:18.398Z,0.25
2023-12-05T06:52:47.406Z,0.38
2023-12-05T06:55:16.037Z,0.33
2023-12-05T06:57:46.016Z,-0.40
2023-12-05T07:00:16.960Z,0.19
2023-12-05T07:02:49.106Z,0.34
2023-12-05T07:05:17.992Z,0.05
2023-12-05T07:07:46.960Z,0.01
2023-12-05T07:10:15.378Z,-0.21
2023-12-05T07:12:45.742Z,0.01
2023-12-05T07:15:14.406Z,-0.12
2023-12-05T07:17:42.956Z,0.02
2023-12-05T07:20:12.183Z,-0.38
2023-12-05T07:22:40.738Z,-0.18
2023-12-05T07:25:09.836Z,-0.49
2023-12-05T07:27:38.414Z,-0.25
2023-12-05T07:30:10.145Z,-0.95
2023-12-05T07:32:38.909Z,-0.31
2023-12-05T07:35:08.673Z,-0.23
2023-12-05T07:37:37.412Z,-0.29
2023-12-05T07:40:07.839Z,-0.32
2023-12-05T07:42:36.455Z,-0.21
2023-12-05T07:45:06.445Z,-0.23
2023-12-05T07:47:36.503Z,-0.32
2023-12-05T07:50:05.808Z,-0.30
2023-12-05T07:52:34.282Z,-0.46
2023-12-05T07:55:02.717Z,-0.12
2023-12-05T07:57:31.233Z,-0.44
2023-12-05T08:00:00.991Z,-0.77
2023-12-05T08:02:29.813Z,-0.20
2023-12-05T08:04:59.751Z,-0.19
2023-12-05T08:07:28.809Z,-0.54
2023-12-05T08:09:58.525Z,-0.36
2023-12-05T08:12:27.029Z,-0.15
2023-12-05T08:14:55.560Z,-0.67
2023-12-05T08:17:24.102Z,-0.37
2023-12-05T08:19:52.621Z,-0.66
2023-12-05T08:22:23.150Z,-0.66
2023-12-05T08:24:52.124Z,-0.39
2023-12-05T08:27:20.540Z,-0.32
2023-12-05T08:29:48.965Z,-0.47
2023-12-05T08:32:17.456Z,-0.35
2023-12-05T08:34:46.094Z,-0.74
2023-12-05T08:37:14.586Z,-0.75
2023-12-05T08:39:44.801Z,-0.39
2023-12-05T08:42:13.272Z,-0.13
2023-12-05T08:44:41.689Z,-0.33
2023-12-05T08:47:10.597Z,-0.86
2023-12-05T08:49:39.139Z,-0.66
2023-12-05T08:52:07.883Z,-0.69
2023-12-05T08:54:36.422Z,-0.44
2023-12-05T08:57:06.994Z,-0.41
2023-12-05T08:59:35.365Z,-0.49
2023-12-05T09:02:06.138Z,-0.23
2023-12-05T09:04:34.735Z,-0.41
2023-12-05T09:07:03.527Z,-0.11
2023-12-05T09:09:32.385Z,-0.05
2023-12-05T09:12:01.325Z,-0.86
2023-12-05T09:14:31.318Z,0.15
2023-12-05T09:17:00.708Z,-0.05
2023-12-05T09:19:29.340Z,-0.69
2023-12-05T09:21:58.220Z,-0.72
2023-12-05T09:24:27.188Z,-0.38
2023-12-05T09:26:55.900Z,-0.75
2023-12-05T09:29:24.549Z,-0.11
2023-12-05T09:31:54.373Z,-0.10
2023-12-05T09:34:23.134Z,-0.16
2023-12-05T09:36:51.668Z,-0.32
2023-12-05T09:39:20.344Z,-0.16
2023-12-05T09:41:54.778Z,0.16
2023-12-05T09:44:24.321Z,0.24
2023-12-05T09:46:59.132Z,-0.21
2023-12-05T09:49:29.730Z,0.12
2023-12-05T09:51:59.382Z,-0.24
2023-12-05T09:54:28.845Z,-0.17
2023-12-05T09:56:59.718Z,-0.14
2023-12-05T09:59:28.638Z,0.01
2023-12-05T10:02:04.761Z,-0.20
2023-12-05T10:04:43.056Z,-0.63
2023-12-05T10:07:12.869Z,-0.53
2023-12-05T10:09:43.994Z,-1.10
2023-12-05T10:12:14.637Z,-0.35
2023-12-05T10:14:43.536Z,-0.20
2023-12-05T10:17:13.940Z,-0.00
2023-12-05T10:19:42.564Z,-0.03
2023-12-05T10:22:11.808Z,0.19
2023-12-05T10:24:47.843Z,0.03
2023-12-05T10:27:17.741Z,-0.36
2023-12-05T10:29:46.123Z,-0.20
2023-12-05T10:32:16.280Z,-1.02
2023-12-05T10:34:50.340Z,-0.44
2023-12-05T10:37:23.710Z,-0.15
2023-12-05T10:39:53.296Z,0.02
2023-12-05T10:42:22.201Z,-0.53
2023-12-05T10:44:50.751Z,-0.16
2023-12-05T10:47:20.887Z,-0.32
2023-12-05T10:49:50.970Z,-0.71
2023-12-05T10:52:21.839Z,-0.31
2023-12-05T10:54:57.937Z,-0.25
2023-12-05T10:57:34.301Z,0.01
2023-12-05T11:00:06.946Z,-0.36
2023-12-05T11:02:40.257Z,-0.37
2023-12-05T11:05:12.018Z,-0.49
2023-12-05T11:07:40.636Z,-0.24
2023-12-05T11:10:10.483Z,-0.56
2023-12-05T11:12:41.755Z,-0.18
2023-12-05T11:15:13.190Z,-0.30
2023-12-05T11:17:54.827Z,-0.09
2023-12-05T11:20:45.991Z,-0.07
2023-12-05T11:23:39.758Z,-0.44
2023-12-05T11:26:45.449Z,-0.22
2023-12-05T11:29:50.358Z,-0.24
2023-12-05T11:32:28.529Z,-0.37
2023-12-05T11:35:12.879Z,-0.24
2023-12-05T11:38:14.736Z,-0.23
2023-12-05T11:40:43.727Z,-0.28
2023-12-05T11:43:14.223Z,-0.48
2023-12-05T11:45:44.890Z,-0.38
2023-12-05T11:48:15.679Z,-0.34
2023-12-05T11:50:47.253Z,-0.13
2023-12-05T11:53:17.619Z,-0.28
2023-12-05T11:55:49.464Z,-0.10
2023-12-05T11:58:29.897Z,-0.14
2023-12-05T12:01:07.768Z,-0.16
2023-12-05T12:03:48.773Z,-0.33
2023-12-05T12:06:22.460Z,-0.40
2023-12-05T12:08:55.003Z,-0.19
2023-12-05T12:11:24.334Z,-0.49
2023-12-05T12:13:53.388Z,-0.21
2023-12-05T12:16:24.998Z,-0.27
2023-12-05T12:18:55.206Z,-0.16
2023-12-05T12:21:31.629Z,-0.47
2023-12-05T12:24:00.595Z,-0.29
2023-12-05T12:26:33.467Z,-0.34
2023-12-05T12:29:09.079Z,-0.38
2023-12-05T12:31:38.054Z,-0.63
2023-12-05T12:34:09.399Z,-0.69
2023-12-05T12:36:39.938Z,-0.73
2023-12-05T12:39:08.531Z,-0.61
2023-12-05T12:41:37.309Z,-0.55
2023-12-05T12:44:07.046Z,-0.55
2023-12-05T12:46:35.692Z,-0.66
2023-12-05T12:49:29.657Z,-0.56
2023-12-05T12:51:59.880Z,-0.48
2023-12-05T12:54:28.688Z,-0.57
2023-12-05T12:56:57.830Z,-0.58
2023-12-05T12:59:26.260Z,-0.81
2023-12-05T13:01:55.509Z,-0.28
2023-12-05T13:04:25.940Z,-0.33
2023-12-05T13:06:57.994Z,-0.37
2023-12-05T13:09:27.559Z,-0.59
2023-12-05T13:11:56.201Z,-0.15
2023-12-05T13:14:24.863Z,-0.20
2023-12-05T13:16:53.381Z,-0.35
2023-12-05T13:19:28.503Z,-0.37
2023-12-05T13:21:58.583Z,-0.20
2023-12-05T13:24:27.748Z,-0.78
2023-12-05T13:26:59.589Z,-0.66
2023-12-05T13:29:28.638Z,-0.81
2023-12-05T13:31:57.603Z,-0.88
2023-12-05T13:34:26.300Z,-0.65
2023-12-05T13:36:55.147Z,-0.66
2023-12-05T13:39:25.224Z,-1.23
2023-12-05T13:41:53.696Z,-0.76
2023-12-05T13:44:22.131Z,-1.52
2023-12-05T13:46:50.624Z,-0.81
2023-12-05T13:49:19.254Z,-1.03
2023-12-05T13:51:47.976Z,-1.09
2023-12-05T13:54:16.580Z,-0.70
2023-12-05T13:56:46.720Z,-0.69
2023-12-05T13:59:15.176Z,-0.92
2023-12-05T14:01:43.777Z,-0.85
2023-12-05T14:04:12.391Z,-0.62
2023-12-05T14:06:41.163Z,-1.12
2023-12-05T14:09:10.744Z,-1.03
2023-12-05T14:11:44.839Z,-1.43
2023-12-05T14:14:15.709Z,-2.01
2023-12-05T14:16:44.496Z,-1.14
2023-12-05T14:19:13.221Z,-1.19
2023-12-05T14:21:41.844Z,-1.55
2023-12-05T14:24:10.248Z,-1.56
2023-12-05T14:26:39.220Z,-1.41
2023-12-05T14:29:07.576Z,-1.15
2023-12-05T14:31:39.516Z,-1.28
2023-12-05T14:34:09.559Z,-1.57
2023-12-05T14:36:38.193Z,-1.16
2023-12-05T14:39:10.848Z,-1.39
2023-12-05T14:41:39.935Z,-1.12
2023-12-05T14:44:08.658Z,-0.89
2023-12-05T14:46:38.751Z,-0.85
2023-12-05T14:49:07.358Z,-0.98
2023-12-05T14:51:36.774Z,-0.98
2023-12-05T14:54:05.429Z,-1.16
2023-12-05T14:56:33.948Z,-1.32
2023-12-05T14:59:02.501Z,-1.34
2023-12-05T15:01:31.079Z,-1.48
2023-12-05T15:04:02.296Z,-1.30
2023-12-05T15:06:30.844Z,-1.19
2023-12-05T15:09:00.744Z,-1.35
2023-12-05T15:11:32.626Z,-1.39
2023-12-05T15:14:01.179Z,-1.49
2023-12-05T15:16:29.807Z,-1.34
2023-12-05T15:18:58.376Z,-1.15
2023-12-05T15:21:29.878Z,-1.37
2023-12-05T15:24:00.075Z,-1.67
2023-12-05T15:26:28.761Z,-1.90
2023-12-05T15:28:57.269Z,-1.19
2023-12-05T15:31:25.774Z,-0.81
2023-12-05T15:33:56.188Z,-0.82
2023-12-05T15:36:24.898Z,-0.88
2023-12-05T15:38:54.748Z,-1.05
2023-12-05T15:41:23.330Z,-0.74
2023-12-05T15:43:52.405Z,-0.83
2023-12-05T15:46:25.298Z,-0.83
2023-12-05T15:48:53.949Z,-0.66
2023-12-05T15:51:22.480Z,-0.89
2023-12-05T15:53:50.970Z,-1.24
2023-12-05T15:56:20.724Z,-1.08
2023-12-05T15:58:51.621Z,-1.38
2023-12-05T16:01:20.899Z,-1.33
2023-12-05T16:03:50.214Z,-0.89
2023-12-05T16:06:19.024Z,-1.03
2023-12-05T16:08:48.102Z,-0.72
2023-12-05T16:11:17.362Z,-1.36
2023-12-05T16:13:48.618Z,-1.75
2023-12-05T16:16:17.349Z,-1.35
2023-12-05T16:18:46.124Z,-1.44
2023-12-05T16:21:14.809Z,-1.13
2023-12-05T16:23:43.386Z,-0.89
2023-12-05T16:26:12.171Z,-1.14
2023-12-05T16:28:40.882Z,-2.26
2023-12-05T16:31:10.981Z,-1.00
2023-12-05T16:33:39.807Z,-1.04
2023-12-05T16:36:10.876Z,-1.02
2023-12-05T16:38:39.404Z,-0.82
2023-12-05T16:41:08.149Z,-0.87
2023-12-05T16:43:36.582Z,-1.93
2023-12-05T16:46:05.359Z,-1.14
2023-12-05T16:48:35.729Z,-1.12
2023-12-05T16:51:04.927Z,-1.19
2023-12-05T16:53:33.391Z,-1.78
2023-12-05T16:56:03.089Z,-1.86
2023-12-05T16:58:31.652Z,-1.17
2023-12-05T17:01:00.315Z,-1.14
2023-12-05T17:03:29.135Z,-2.65
2023-12-05T17:05:59.475Z,-1.70
2023-12-05T17:08:27.936Z,-1.18
2023-12-05T17:10:59.118Z,-1.26
2023-12-05T17:13:27.626Z,-2.23
2023-12-05T17:15:56.215Z,-1.19
2023-12-05T17:18:25.167Z,-2.50
2023-12-05T17:20:53.881Z,-2.33
2023-12-05T17:23:23.750Z,-1.66
2023-12-05T17:25:52.338Z,-1.35
2023-12-05T17:28:20.807Z,-2.42
2023-12-05T17:30:49.985Z,-1.63
2023-12-05T17:33:19.188Z,-2.48
2023-12-05T17:35:48.263Z,-1.38
2023-12-05T17:38:17.538Z,-2.24
2023-12-05T17:40:47.560Z,-1.35
2023-12-05T17:43:16.057Z,-1.98
2023-12-05T17:45:44.815Z,-1.30
2023-12-05T17:48:13.401Z,-1.41
2023-12-05T17:50:42.039Z,-1.41
2023-12-05T17:53:10.486Z,-2.06
2023-12-05T17:55:38.937Z,-1.33
2023-12-05T17:58:08.946Z,-1.68
2023-12-05T18:00:37.692Z,-1.63
2023-12-05T18:03:06.258Z,-1.33
2023-12-05T18:05:34.715Z,-1.40
2023-12-05T18:08:08.665Z,-1.48
2023-12-05T18:10:37.756Z,-1.10
2023-12-05T18:13:06.376Z,-1.00
2023-12-05T18:15:36.255Z,-1.05
2023-12-05T18:18:05.354Z,-1.63
2023-12-05T18:20:33.773Z,-1.18
2023-12-05T18:23:02.277Z,-0.95
2023-12-05T18:25:30.764Z,-1.22
2023-12-05T18:27:59.266Z,-1.33
2023-12-05T18:30:28.072Z,-1.23
2023-12-05T18:32:59.251Z,-2.16
2023-12-05T18:35:27.780Z,-1.57
2023-12-05T18:37:56.423Z,-1.67
2023-12-05T18:40:25.129Z,-1.30
2023-12-05T18:42:54.374Z,-1.18
2023-12-05T18:45:23.125Z,-1.63
2023-12-05T18:47:51.791Z,-1.19
2023-12-05T18:50:22.890Z,-1.08
2023-12-05T18:52:51.512Z,-1.77
2023-12-05T18:55:20.548Z,-1.22
2023-12-05T18:57:49.124Z,-1.38
2023-12-05T19:00:19.204Z,-1.40
2023-12-05T19:02:48.221Z,-1.18
2023-12-05T19:05:17.451Z,-1.79
2023-12-05T19:07:47.854Z,-1.37
2023-12-05T19:10:16.690Z,-1.12
2023-12-05T19:12:46.313Z,-2.14
2023-12-05T19:15:16.164Z,-1.47
2023-12-05T19:17:44.917Z,-1.54
2023-12-05T19:20:13.790Z,-1.38
2023-12-05T19:22:42.295Z,-1.53
2023-12-05T19:25:12.866Z,-1.46
2023-12-05T19:27:41.837Z,-1.36
2023-12-05T19:30:11.191Z,-1.06
2023-12-05T19:32:39.845Z,-1.59
2023-12-05T19:35:10.583Z,-1.80
2023-12-05T19:37:39.486Z,-1.27
2023-12-05T19:40:11.315Z,-1.23
2023-12-05T19:42:39.731Z,-1.49
2023-12-05T19:45:09.509Z,-1.46
2023-12-05T19:47:37.989Z,-1.21
2023-12-05T19:50:08.269Z,-1.68
2023-12-05T19:52:36.766Z,-1.66
2023-12-05T19:55:07.358Z,-1.78
2023-12-05T19:57:37.318Z,-1.63
2023-12-05T20:00:07.652Z,-1.74
2023-12-05T20:02:36.079Z,-2.71
2023-12-05T20:05:05.832Z,-1.89
2023-12-05T20:07:34.396Z,-2.63
2023-12-05T20:10:02.951Z,-1.28
2023-12-05T20:12:31.422Z,-2.46
2023-12-05T20:15:01.292Z,-2.00
2023-12-05T20:17:29.775Z,-1.34
2023-12-05T20:19:58.350Z,-1.94
2023-12-05T20:22:29.396Z,-1.67
2023-12-05T20:24:58.507Z,-1.50
2023-12-05T20:27:27.950Z,-1.54
2023-12-05T20:29:57.502Z,-1.40
2023-12-05T20:32:27.465Z,-1.42
2023-12-05T20:34:57.688Z,-1.51
2023-12-05T20:37:26.156Z,-1.53
2023-12-05T20:39:54.706Z,-2.11
2023-12-05T20:42:27.732Z,-1.73
2023-12-05T20:44:56.813Z,-2.10
2023-12-05T20:47:27.107Z,-1.66
2023-12-05T20:49:55.589Z,-1.46
2023-12-05T20:52:25.504Z,-1.97
2023-12-05T20:54:54.038Z,-1.82
2023-12-05T20:57:22.395Z,-1.66
2023-12-05T20:59:50.856Z,-1.59
2023-12-05T21:02:19.870Z,-1.61
2023-12-05T21:04:50.373Z,-1.41
2023-12-05T21:07:20.951Z,-1.32
2023-12-05T21:09:50.186Z,-1.29
2023-12-05T21:12:19.066Z,-1.49
2023-12-05T21:14:47.884Z,-1.31
2023-12-05T21:17:16.370Z,-1.18
2023-12-05T21:19:44.893Z,-1.06
2023-12-05T21:22:14.864Z,-1.63
2023-12-05T21:24:43.429Z,-1.26
2023-12-05T21:27:11.967Z,-1.59
2023-12-05T21:29:40.397Z,-0.97
2023-12-05T21:32:09.082Z,-1.00
2023-12-05T21:34:42.989Z,-1.09
2023-12-05T21:37:11.809Z,-1.11
2023-12-05T21:39:41.823Z,-1.37
2023-12-05T21:42:10.361Z,-2.30
2023-12-05T21:44:41.547Z,-1.89
2023-12-05T21:47:10.405Z,-1.47
2023-12-05T21:49:39.066Z,-1.67
2023-12-05T21:52:08.778Z,-1.57
2023-12-05T21:54:37.440Z,-1.55
2023-12-05T21:57:07.586Z,-1.17
2023-12-05T21:59:36.091Z,-2.05
2023-12-05T22:02:04.589Z,-1.32
2023-12-05T22:04:34.353Z,-1.22
2023-12-05T22:07:03.144Z,-1.33
2023-12-05T22:09:31.995Z,-1.69
2023-12-05T22:12:00.513Z,-1.28
2023-12-05T22:14:30.367Z,-1.52
2023-12-05T22:16:58.856Z,-1.24
2023-12-05T22:19:27.330Z,-1.47
2023-12-05T22:21:55.873Z,-1.10
2023-12-05T22:24:29.851Z,-1.32
2023-12-05T22:27:01.377Z,-1.76
2023-12-05T22:29:31.866Z,-1.28
2023-12-05T22:32:00.443Z,-0.99
2023-12-05T22:34:29.017Z,-0.92
2023-12-05T22:36:57.618Z,-1.35
2023-12-05T22:39:26.618Z,-0.71
2023-12-05T22:41:55.505Z,-0.79
2023-12-05T22:44:26.931Z,-0.72
2023-12-05T22:46:56.693Z,-0.79
2023-12-05T22:49:25.171Z,-0.76
2023-12-05T22:51:53.760Z,-1.23
2023-12-05T22:54:22.775Z,-0.68
2023-12-05T22:56:51.197Z,-0.92
2023-12-05T22:59:19.946Z,-0.57
2023-12-05T23:01:48.738Z,-1.19
2023-12-05T23:04:18.967Z,-0.85
2023-12-05T23:06:47.878Z,-0.77
2023-12-05T23:09:16.564Z,-0.62
2023-12-05T23:11:46.538Z,-0.54
2023-12-05T23:14:15.040Z,-0.88
2023-12-05T23:16:43.657Z,-0.69
2023-12-05T23:19:12.094Z,-0.57
2023-12-05T23:21:42.071Z,-1.60
2023-12-05T23:24:10.655Z,-0.86
2023-12-05T23:26:39.147Z,-0.90
2023-12-05T23:29:07.648Z,-0.65
2023-12-05T23:31:36.110Z,-0.73
2023-12-05T23:34:04.775Z,-0.92
2023-12-05T23:36:33.328Z,-0.81
2023-12-05T23:39:03.510Z,-0.53
2023-12-05T23:41:31.990Z,-0.63
2023-12-05T23:44:00.408Z,-1.27
2023-12-05T23:46:28.925Z,-0.31
2023-12-05T23:48:58.110Z,-0.43
2023-12-05T23:51:26.552Z,-0.53
2023-12-05T23:53:55.563Z,-0.41
2023-12-05T23:56:25.444Z,-0.55
2023-12-05T23:58:55.223Z,-0.44
